sensor_id;sensor_type;location;lat;lon;timestamp;temperature;humidity
770;DHT22;368;48.698;9.116;2023-08-30T00:00:24;12.10;99.90
770;DHT22;368;48.698;9.116;2023-08-30T00:02:51;12.40;99.90
770;DHT22;368;48.698;9.116;2023-08-30T00:05:18;12.30;99.90
770;DHT22;368;48.698;9.116;2023-08-30T00:07:45;12.30;99.90
770;DHT22;368;48.698;9.116;2023-08-30T00:10:12;12.30;99.90
770;DHT22;368;48.698;9.116;2023-08-30T00:12:39;12.30;99.90
770;DHT22;368;48.698;9.116;2023-08-30T00:15:08;12.10;99.90
770;DHT22;368;48.698;9.116;2023-08-30T00:17:34;12.40;99.90
770;DHT22;368;48.698;9.116;2023-08-30T00:20:01;12.60;99.90
770;DHT22;368;48.698;9.116;2023-08-30T00:22:29;12.40;99.90
770;DHT22;368;48.698;9.116;2023-08-30T00:24:56;12.30;99.90
770;DHT22;368;48.698;9.116;2023-08-30T00:27:23;12.30;99.90
770;DHT22;368;48.698;9.116;2023-08-30T00:29:50;12.50;99.90
770;DHT22;368;48.698;9.116;2023-08-30T00:32:18;12.20;99.90
770;DHT22;368;48.698;9.116;2023-08-30T00:34:45;12.20;99.90
770;DHT22;368;48.698;9.116;2023-08-30T00:37:11;12.30;99.90
770;DHT22;368;48.698;9.116;2023-08-30T00:39:38;12.20;99.90
770;DHT22;368;48.698;9.116;2023-08-30T00:42:05;12.20;99.90
770;DHT22;368;48.698;9.116;2023-08-30T00:44:33;12.30;99.90
770;DHT22;368;48.698;9.116;2023-08-30T00:47:00;12.40;99.90
770;DHT22;368;48.698;9.116;2023-08-30T00:49:29;12.20;99.90
770;DHT22;368;48.698;9.116;2023-08-30T00:51:56;12.30;99.90
770;DHT22;368;48.698;9.116;2023-08-30T00:54:24;12.40;99.90
770;DHT22;368;48.698;9.116;2023-08-30T00:56:51;12.20;99.90
770;DHT22;368;48.698;9.116;2023-08-30T00:59:18;12.60;99.90
770;DHT22;368;48.698;9.116;2023-08-30T01:01:45;12.40;99.90
770;DHT22;368;48.698;9.116;2023-08-30T01:04:11;12.20;99.90
770;DHT22;368;48.698;9.116;2023-08-30T01:06:40;12.70;99.90
770;DHT22;368;48.698;9.116;2023-08-30T01:09:07;12.30;99.90
770;DHT22;368;48.698;9.116;2023-08-30T01:11:39;12.30;99.90
770;DHT22;368;48.698;9.116;2023-08-30T01:14:09;12.50;99.90
770;DHT22;368;48.698;9.116;2023-08-30T01:16:36;12.50;99.90
770;DHT22;368;48.698;9.116;2023-08-30T01:19:17;12.60;99.90
770;DHT22;368;48.698;9.116;2023-08-30T01:21:55;12.30;99.90
770;DHT22;368;48.698;9.116;2023-08-30T01:24:28;12.50;99.90
770;DHT22;368;48.698;9.116;2023-08-30T01:27:08;12.30;99.90
770;DHT22;368;48.698;9.116;2023-08-30T01:29:36;12.10;99.90
770;DHT22;368;48.698;9.116;2023-08-30T01:32:05;12.30;99.90
770;DHT22;368;48.698;9.116;2023-08-30T01:34:34;12.10;99.90
770;DHT22;368;48.698;9.116;2023-08-30T01:37:02;12.30;99.90
770;DHT22;368;48.698;9.116;2023-08-30T01:39:30;12.60;99.90
770;DHT22;368;48.698;9.116;2023-08-30T01:41:58;12.40;99.90
770;DHT22;368;48.698;9.116;2023-08-30T01:44:28;12.40;99.90
770;DHT22;368;48.698;9.116;2023-08-30T01:46:55;12.50;99.90
770;DHT22;368;48.698;9.116;2023-08-30T01:49:24;12.30;99.90
770;DHT22;368;48.698;9.116;2023-08-30T01:51:51;12.30;99.90
770;DHT22;368;48.698;9.116;2023-08-30T01:54:19;12.20;99.90
770;DHT22;368;48.698;9.116;2023-08-30T01:56:47;12.20;99.90
770;DHT22;368;48.698;9.116;2023-08-30T01:59:14;12.10;99.90
770;DHT22;368;48.698;9.116;2023-08-30T02:01:42;12.40;99.90
770;DHT22;368;48.698;9.116;2023-08-30T02:04:09;12.30;99.90
770;DHT22;368;48.698;9.116;2023-08-30T02:06:39;12.40;99.90
770;DHT22;368;48.698;9.116;2023-08-30T02:09:14;12.40;99.90
770;DHT22;368;48.698;9.116;2023-08-30T02:11:44;12.20;99.90
770;DHT22;368;48.698;9.116;2023-08-30T02:14:13;12.20;99.90
770;DHT22;368;48.698;9.116;2023-08-30T02:16:45;12.20;99.90
770;DHT22;368;48.698;9.116;2023-08-30T02:19:13;12.40;99.90
770;DHT22;368;48.698;9.116;2023-08-30T02:21:42;12.30;99.90
770;DHT22;368;48.698;9.116;2023-08-30T02:24:09;12.50;99.90
770;DHT22;368;48.698;9.116;2023-08-30T02:26:36;12.30;99.90
770;DHT22;368;48.698;9.116;2023-08-30T02:29:03;12.30;99.90
770;DHT22;368;48.698;9.116;2023-08-30T02:31:30;12.30;99.90
770;DHT22;368;48.698;9.116;2023-08-30T02:33:58;12.40;99.90
770;DHT22;368;48.698;9.116;2023-08-30T02:36:25;12.10;99.90
770;DHT22;368;48.698;9.116;2023-08-30T02:38:51;12.00;99.90
770;DHT22;368;48.698;9.116;2023-08-30T02:41:19;12.10;99.90
770;DHT22;368;48.698;9.116;2023-08-30T02:43:45;12.00;99.90
770;DHT22;368;48.698;9.116;2023-08-30T02:46:12;12.10;99.90
770;DHT22;368;48.698;9.116;2023-08-30T02:48:39;11.90;99.90
770;DHT22;368;48.698;9.116;2023-08-30T02:51:07;11.80;99.90
770;DHT22;368;48.698;9.116;2023-08-30T02:53:34;12.20;99.90
770;DHT22;368;48.698;9.116;2023-08-30T02:56:01;11.70;99.90
770;DHT22;368;48.698;9.116;2023-08-30T02:58:28;11.80;99.90
770;DHT22;368;48.698;9.116;2023-08-30T03:00:54;11.80;99.90
770;DHT22;368;48.698;9.116;2023-08-30T03:03:21;11.80;99.90
770;DHT22;368;48.698;9.116;2023-08-30T03:05:48;11.80;99.90
770;DHT22;368;48.698;9.116;2023-08-30T03:08:16;11.80;99.90
770;DHT22;368;48.698;9.116;2023-08-30T03:10:43;11.70;99.90
770;DHT22;368;48.698;9.116;2023-08-30T03:13:10;11.80;99.90
770;DHT22;368;48.698;9.116;2023-08-30T03:15:36;11.90;99.90
770;DHT22;368;48.698;9.116;2023-08-30T03:18:03;11.60;99.90
770;DHT22;368;48.698;9.116;2023-08-30T03:20:30;11.70;99.90
770;DHT22;368;48.698;9.116;2023-08-30T03:22:57;11.80;99.90
770;DHT22;368;48.698;9.116;2023-08-30T03:25:29;11.70;99.90
770;DHT22;368;48.698;9.116;2023-08-30T03:27:56;11.60;99.90
770;DHT22;368;48.698;9.116;2023-08-30T03:30:22;11.70;99.90
770;DHT22;368;48.698;9.116;2023-08-30T03:32:49;11.80;99.90
770;DHT22;368;48.698;9.116;2023-08-30T03:35:16;11.80;99.90
770;DHT22;368;48.698;9.116;2023-08-30T03:37:43;11.80;99.90
770;DHT22;368;48.698;9.116;2023-08-30T03:40:10;11.70;99.90
770;DHT22;368;48.698;9.116;2023-08-30T03:45:14;11.70;99.90
770;DHT22;368;48.698;9.116;2023-08-30T03:47:41;11.80;99.90
770;DHT22;368;48.698;9.116;2023-08-30T03:50:08;11.70;99.90
770;DHT22;368;48.698;9.116;2023-08-30T03:52:35;11.60;99.90
770;DHT22;368;48.698;9.116;2023-08-30T03:55:02;11.80;99.90
770;DHT22;368;48.698;9.116;2023-08-30T03:57:29;11.50;99.90
770;DHT22;368;48.698;9.116;2023-08-30T03:59:55;11.60;99.90
770;DHT22;368;48.698;9.116;2023-08-30T04:02:23;11.70;99.90
770;DHT22;368;48.698;9.116;2023-08-30T04:04:50;11.70;99.90
770;DHT22;368;48.698;9.116;2023-08-30T04:07:17;11.60;99.90
770;DHT22;368;48.698;9.116;2023-08-30T04:09:43;11.70;99.90
770;DHT22;368;48.698;9.116;2023-08-30T04:12:10;11.70;99.90
770;DHT22;368;48.698;9.116;2023-08-30T04:14:37;11.50;99.90
770;DHT22;368;48.698;9.116;2023-08-30T04:17:04;11.40;99.90
770;DHT22;368;48.698;9.116;2023-08-30T04:19:32;11.50;99.90
770;DHT22;368;48.698;9.116;2023-08-30T04:21:58;11.70;99.90
770;DHT22;368;48.698;9.116;2023-08-30T04:24:25;11.50;99.90
770;DHT22;368;48.698;9.116;2023-08-30T04:26:52;11.60;99.90
770;DHT22;368;48.698;9.116;2023-08-30T04:29:20;11.70;99.90
770;DHT22;368;48.698;9.116;2023-08-30T04:31:46;11.50;99.90
770;DHT22;368;48.698;9.116;2023-08-30T04:34:13;11.50;99.90
770;DHT22;368;48.698;9.116;2023-08-30T04:36:42;11.70;99.90
770;DHT22;368;48.698;9.116;2023-08-30T04:39:10;11.20;99.90
770;DHT22;368;48.698;9.116;2023-08-30T04:41:36;11.50;99.90
770;DHT22;368;48.698;9.116;2023-08-30T04:44:04;11.50;99.90
770;DHT22;368;48.698;9.116;2023-08-30T04:46:30;11.50;99.90
770;DHT22;368;48.698;9.116;2023-08-30T04:48:57;11.80;99.90
770;DHT22;368;48.698;9.116;2023-08-30T04:51:24;11.90;99.90
770;DHT22;368;48.698;9.116;2023-08-30T04:53:52;11.80;99.90
770;DHT22;368;48.698;9.116;2023-08-30T04:56:19;12.10;99.90
770;DHT22;368;48.698;9.116;2023-08-30T04:58:45;11.90;99.90
770;DHT22;368;48.698;9.116;2023-08-30T05:01:12;11.70;99.90
770;DHT22;368;48.698;9.116;2023-08-30T05:03:40;11.90;99.90
770;DHT22;368;48.698;9.116;2023-08-30T05:06:07;12.00;99.90
770;DHT22;368;48.698;9.116;2023-08-30T05:08:33;12.00;99.90
770;DHT22;368;48.698;9.116;2023-08-30T05:11:02;11.90;99.90
770;DHT22;368;48.698;9.116;2023-08-30T05:13:28;11.90;99.90
770;DHT22;368;48.698;9.116;2023-08-30T05:15:55;12.20;99.90
770;DHT22;368;48.698;9.116;2023-08-30T05:18:22;12.00;99.90
770;DHT22;368;48.698;9.116;2023-08-30T05:20:49;11.80;99.90
770;DHT22;368;48.698;9.116;2023-08-30T05:23:16;12.30;99.90
770;DHT22;368;48.698;9.116;2023-08-30T05:25:42;12.20;99.90
770;DHT22;368;48.698;9.116;2023-08-30T05:28:10;12.30;99.90
770;DHT22;368;48.698;9.116;2023-08-30T05:30:39;12.40;99.90
770;DHT22;368;48.698;9.116;2023-08-30T05:33:06;12.20;99.90
770;DHT22;368;48.698;9.116;2023-08-30T05:35:33;12.30;99.90
770;DHT22;368;48.698;9.116;2023-08-30T05:38:00;12.50;99.90
770;DHT22;368;48.698;9.116;2023-08-30T05:40:27;12.30;99.90
770;DHT22;368;48.698;9.116;2023-08-30T05:42:54;12.40;99.90
770;DHT22;368;48.698;9.116;2023-08-30T05:45:23;12.30;99.90
770;DHT22;368;48.698;9.116;2023-08-30T05:47:50;12.50;99.90
770;DHT22;368;48.698;9.116;2023-08-30T05:50:16;12.60;99.90
770;DHT22;368;48.698;9.116;2023-08-30T05:52:43;12.30;99.90
770;DHT22;368;48.698;9.116;2023-08-30T05:55:10;12.70;99.90
770;DHT22;368;48.698;9.116;2023-08-30T05:57:37;12.40;99.90
770;DHT22;368;48.698;9.116;2023-08-30T06:00:05;12.60;99.90
770;DHT22;368;48.698;9.116;2023-08-30T06:02:34;12.60;99.90
770;DHT22;368;48.698;9.116;2023-08-30T06:05:01;12.60;99.90
770;DHT22;368;48.698;9.116;2023-08-30T06:07:28;12.60;99.90
770;DHT22;368;48.698;9.116;2023-08-30T06:09:55;12.70;99.90
770;DHT22;368;48.698;9.116;2023-08-30T06:12:21;12.70;99.90
770;DHT22;368;48.698;9.116;2023-08-30T06:14:48;12.90;99.90
770;DHT22;368;48.698;9.116;2023-08-30T06:17:18;12.90;99.90
770;DHT22;368;48.698;9.116;2023-08-30T06:19:46;12.90;99.90
770;DHT22;368;48.698;9.116;2023-08-30T06:22:13;12.70;99.90
770;DHT22;368;48.698;9.116;2023-08-30T06:24:40;12.80;99.90
770;DHT22;368;48.698;9.116;2023-08-30T06:27:07;12.90;99.90
770;DHT22;368;48.698;9.116;2023-08-30T06:29:33;12.80;99.90
770;DHT22;368;48.698;9.116;2023-08-30T06:32:00;13.10;99.90
770;DHT22;368;48.698;9.116;2023-08-30T06:34:27;13.30;99.90
770;DHT22;368;48.698;9.116;2023-08-30T06:36:56;13.10;99.90
770;DHT22;368;48.698;9.116;2023-08-30T06:39:22;13.10;99.90
770;DHT22;368;48.698;9.116;2023-08-30T06:41:49;13.00;99.90
770;DHT22;368;48.698;9.116;2023-08-30T06:44:16;13.20;99.90
770;DHT22;368;48.698;9.116;2023-08-30T06:46:43;13.10;99.90
770;DHT22;368;48.698;9.116;2023-08-30T06:49:10;13.10;99.90
770;DHT22;368;48.698;9.116;2023-08-30T06:51:37;13.20;99.90
770;DHT22;368;48.698;9.116;2023-08-30T06:54:05;13.40;99.90
770;DHT22;368;48.698;9.116;2023-08-30T06:56:32;13.40;99.90
770;DHT22;368;48.698;9.116;2023-08-30T06:58:58;13.30;99.90
770;DHT22;368;48.698;9.116;2023-08-30T07:01:25;13.40;99.90
770;DHT22;368;48.698;9.116;2023-08-30T07:03:52;13.40;99.90
770;DHT22;368;48.698;9.116;2023-08-30T07:06:19;13.40;99.90
770;DHT22;368;48.698;9.116;2023-08-30T07:08:45;13.50;99.90
770;DHT22;368;48.698;9.116;2023-08-30T07:11:13;13.30;99.90
770;DHT22;368;48.698;9.116;2023-08-30T07:13:40;13.40;99.90
770;DHT22;368;48.698;9.116;2023-08-30T07:16:07;13.60;99.90
770;DHT22;368;48.698;9.116;2023-08-30T07:18:34;13.60;99.90
770;DHT22;368;48.698;9.116;2023-08-30T07:21:01;13.60;99.90
770;DHT22;368;48.698;9.116;2023-08-30T07:23:28;13.70;99.90
770;DHT22;368;48.698;9.116;2023-08-30T07:25:55;13.80;99.90
770;DHT22;368;48.698;9.116;2023-08-30T07:28:24;13.70;99.90
770;DHT22;368;48.698;9.116;2023-08-30T07:30:50;13.70;99.90
770;DHT22;368;48.698;9.116;2023-08-30T07:33:17;13.80;99.90
770;DHT22;368;48.698;9.116;2023-08-30T07:35:44;13.90;99.90
770;DHT22;368;48.698;9.116;2023-08-30T07:38:11;13.80;99.90
770;DHT22;368;48.698;9.116;2023-08-30T07:40:37;13.80;99.90
770;DHT22;368;48.698;9.116;2023-08-30T07:43:04;13.80;99.90
770;DHT22;368;48.698;9.116;2023-08-30T07:45:32;14.00;99.90
770;DHT22;368;48.698;9.116;2023-08-30T07:47:59;14.00;99.90
770;DHT22;368;48.698;9.116;2023-08-30T07:50:26;14.20;99.90
770;DHT22;368;48.698;9.116;2023-08-30T07:52:53;14.00;99.90
770;DHT22;368;48.698;9.116;2023-08-30T07:55:20;14.30;99.90
770;DHT22;368;48.698;9.116;2023-08-30T07:57:46;14.00;99.90
770;DHT22;368;48.698;9.116;2023-08-30T08:00:14;14.30;99.90
770;DHT22;368;48.698;9.116;2023-08-30T08:02:42;14.20;99.90
770;DHT22;368;48.698;9.116;2023-08-30T08:05:09;14.40;99.90
770;DHT22;368;48.698;9.116;2023-08-30T08:07:39;14.60;99.90
770;DHT22;368;48.698;9.116;2023-08-30T08:10:07;14.40;99.90
770;DHT22;368;48.698;9.116;2023-08-30T08:12:34;14.60;99.90
770;DHT22;368;48.698;9.116;2023-08-30T08:15:00;14.50;99.90
770;DHT22;368;48.698;9.116;2023-08-30T08:17:28;14.40;99.90
770;DHT22;368;48.698;9.116;2023-08-30T08:19:56;14.80;99.90
770;DHT22;368;48.698;9.116;2023-08-30T08:22:23;14.80;99.90
770;DHT22;368;48.698;9.116;2023-08-30T08:24:50;14.80;99.90
770;DHT22;368;48.698;9.116;2023-08-30T08:27:19;14.70;99.90
770;DHT22;368;48.698;9.116;2023-08-30T08:29:46;15.00;99.90
770;DHT22;368;48.698;9.116;2023-08-30T08:32:12;15.20;99.90
770;DHT22;368;48.698;9.116;2023-08-30T08:34:39;15.00;99.90
770;DHT22;368;48.698;9.116;2023-08-30T08:37:08;15.30;99.90
770;DHT22;368;48.698;9.116;2023-08-30T08:39:34;15.40;99.90
770;DHT22;368;48.698;9.116;2023-08-30T08:42:02;15.60;99.90
770;DHT22;368;48.698;9.116;2023-08-30T08:44:32;15.80;99.90
770;DHT22;368;48.698;9.116;2023-08-30T08:46:59;15.80;99.90
770;DHT22;368;48.698;9.116;2023-08-30T08:49:28;15.80;99.90
770;DHT22;368;48.698;9.116;2023-08-30T08:51:56;16.10;99.90
770;DHT22;368;48.698;9.116;2023-08-30T08:54:25;16.50;99.90
770;DHT22;368;48.698;9.116;2023-08-30T08:56:53;17.10;99.90
770;DHT22;368;48.698;9.116;2023-08-30T08:59:21;17.30;99.90
770;DHT22;368;48.698;9.116;2023-08-30T09:01:48;17.50;99.90
770;DHT22;368;48.698;9.116;2023-08-30T09:04:15;17.90;99.90
770;DHT22;368;48.698;9.116;2023-08-30T09:06:42;18.00;99.90
770;DHT22;368;48.698;9.116;2023-08-30T09:09:10;18.10;99.90
770;DHT22;368;48.698;9.116;2023-08-30T09:11:38;18.40;99.90
770;DHT22;368;48.698;9.116;2023-08-30T09:14:05;18.70;99.90
770;DHT22;368;48.698;9.116;2023-08-30T09:16:33;18.80;99.90
770;DHT22;368;48.698;9.116;2023-08-30T09:19:00;18.20;99.90
770;DHT22;368;48.698;9.116;2023-08-30T09:21:28;18.00;99.90
770;DHT22;368;48.698;9.116;2023-08-30T09:23:57;18.50;99.90
770;DHT22;368;48.698;9.116;2023-08-30T09:26:24;19.10;99.90
770;DHT22;368;48.698;9.116;2023-08-30T09:28:53;20.20;99.90
770;DHT22;368;48.698;9.116;2023-08-30T09:31:19;20.50;99.90
770;DHT22;368;48.698;9.116;2023-08-30T09:33:46;20.80;99.90
770;DHT22;368;48.698;9.116;2023-08-30T09:36:14;20.50;99.90
770;DHT22;368;48.698;9.116;2023-08-30T09:38:41;20.30;99.90
770;DHT22;368;48.698;9.116;2023-08-30T09:41:14;21.00;99.90
770;DHT22;368;48.698;9.116;2023-08-30T09:43:42;21.30;99.90
770;DHT22;368;48.698;9.116;2023-08-30T09:46:11;21.50;99.90
770;DHT22;368;48.698;9.116;2023-08-30T09:48:38;21.60;99.90
770;DHT22;368;48.698;9.116;2023-08-30T09:51:07;21.60;99.90
770;DHT22;368;48.698;9.116;2023-08-30T09:53:44;22.10;99.90
770;DHT22;368;48.698;9.116;2023-08-30T09:56:12;22.70;99.00
770;DHT22;368;48.698;9.116;2023-08-30T09:58:41;22.60;97.80
770;DHT22;368;48.698;9.116;2023-08-30T10:01:08;21.90;98.70
770;DHT22;368;48.698;9.116;2023-08-30T10:03:37;22.10;98.30
770;DHT22;368;48.698;9.116;2023-08-30T10:06:04;22.30;97.50
770;DHT22;368;48.698;9.116;2023-08-30T10:08:33;22.60;96.90
770;DHT22;368;48.698;9.116;2023-08-30T10:11:02;23.10;96.30
770;DHT22;368;48.698;9.116;2023-08-30T10:13:29;23.20;95.90
770;DHT22;368;48.698;9.116;2023-08-30T10:16:01;23.50;95.90
770;DHT22;368;48.698;9.116;2023-08-30T10:18:32;23.50;96.30
770;DHT22;368;48.698;9.116;2023-08-30T10:21:02;23.30;95.70
770;DHT22;368;48.698;9.116;2023-08-30T10:23:37;23.40;95.00
770;DHT22;368;48.698;9.116;2023-08-30T10:26:05;23.50;93.70
770;DHT22;368;48.698;9.116;2023-08-30T10:28:34;23.10;94.60
770;DHT22;368;48.698;9.116;2023-08-30T10:31:02;23.10;94.90
770;DHT22;368;48.698;9.116;2023-08-30T10:33:29;23.20;93.60
770;DHT22;368;48.698;9.116;2023-08-30T10:36:05;22.80;93.80
770;DHT22;368;48.698;9.116;2023-08-30T10:38:32;23.30;93.10
770;DHT22;368;48.698;9.116;2023-08-30T10:41:07;23.30;92.90
770;DHT22;368;48.698;9.116;2023-08-30T10:43:35;23.10;93.10
770;DHT22;368;48.698;9.116;2023-08-30T10:46:04;22.80;94.00
770;DHT22;368;48.698;9.116;2023-08-30T10:48:36;23.40;93.00
770;DHT22;368;48.698;9.116;2023-08-30T10:51:16;23.80;93.60
770;DHT22;368;48.698;9.116;2023-08-30T10:53:55;24.10;91.60
770;DHT22;368;48.698;9.116;2023-08-30T10:56:27;24.70;91.70
770;DHT22;368;48.698;9.116;2023-08-30T10:58:54;24.30;91.60
770;DHT22;368;48.698;9.116;2023-08-30T11:01:20;24.40;91.00
770;DHT22;368;48.698;9.116;2023-08-30T11:03:49;24.10;90.30
770;DHT22;368;48.698;9.116;2023-08-30T11:06:17;23.80;90.70
770;DHT22;368;48.698;9.116;2023-08-30T11:08:44;23.70;91.80
770;DHT22;368;48.698;9.116;2023-08-30T11:11:11;24.30;90.90
770;DHT22;368;48.698;9.116;2023-08-30T11:13:40;25.20;92.50
770;DHT22;368;48.698;9.116;2023-08-30T11:16:07;25.70;85.70
770;DHT22;368;48.698;9.116;2023-08-30T11:18:36;25.20;86.60
770;DHT22;368;48.698;9.116;2023-08-30T11:21:04;25.50;86.30
770;DHT22;368;48.698;9.116;2023-08-30T11:23:33;25.70;82.30
770;DHT22;368;48.698;9.116;2023-08-30T11:26:00;25.70;84.80
770;DHT22;368;48.698;9.116;2023-08-30T11:28:29;26.10;83.70
770;DHT22;368;48.698;9.116;2023-08-30T11:30:56;24.90;86.50
770;DHT22;368;48.698;9.116;2023-08-30T11:33:23;24.40;86.80
770;DHT22;368;48.698;9.116;2023-08-30T11:35:51;24.00;86.70
770;DHT22;368;48.698;9.116;2023-08-30T11:38:18;23.00;91.30
770;DHT22;368;48.698;9.116;2023-08-30T11:40:49;22.60;90.40
770;DHT22;368;48.698;9.116;2023-08-30T11:43:17;22.20;92.70
770;DHT22;368;48.698;9.116;2023-08-30T11:45:43;21.80;91.70
770;DHT22;368;48.698;9.116;2023-08-30T11:48:11;21.40;92.70
770;DHT22;368;48.698;9.116;2023-08-30T11:50:38;21.20;93.50
770;DHT22;368;48.698;9.116;2023-08-30T11:53:06;20.80;95.00
770;DHT22;368;48.698;9.116;2023-08-30T11:55:32;19.10;94.80
770;DHT22;368;48.698;9.116;2023-08-30T11:58:02;18.60;96.50
770;DHT22;368;48.698;9.116;2023-08-30T12:00:32;18.30;98.60
770;DHT22;368;48.698;9.116;2023-08-30T12:03:00;17.90;99.00
770;DHT22;368;48.698;9.116;2023-08-30T12:05:26;17.70;99.90
770;DHT22;368;48.698;9.116;2023-08-30T12:07:53;17.10;99.90
770;DHT22;368;48.698;9.116;2023-08-30T12:10:20;16.70;99.90
770;DHT22;368;48.698;9.116;2023-08-30T12:12:47;16.50;99.90
770;DHT22;368;48.698;9.116;2023-08-30T12:15:15;16.10;99.90
770;DHT22;368;48.698;9.116;2023-08-30T12:17:42;16.30;99.90
770;DHT22;368;48.698;9.116;2023-08-30T12:20:15;16.30;99.90
770;DHT22;368;48.698;9.116;2023-08-30T12:22:43;16.50;99.90
770;DHT22;368;48.698;9.116;2023-08-30T12:25:17;16.70;99.90
770;DHT22;368;48.698;9.116;2023-08-30T12:27:44;16.80;99.90
770;DHT22;368;48.698;9.116;2023-08-30T12:30:12;17.00;99.90
770;DHT22;368;48.698;9.116;2023-08-30T12:32:40;17.10;99.90
770;DHT22;368;48.698;9.116;2023-08-30T12:35:08;17.20;99.90
770;DHT22;368;48.698;9.116;2023-08-30T12:37:35;17.20;99.90
770;DHT22;368;48.698;9.116;2023-08-30T12:40:01;16.80;99.90
770;DHT22;368;48.698;9.116;2023-08-30T12:42:29;16.80;99.90
770;DHT22;368;48.698;9.116;2023-08-30T12:44:55;16.90;99.90
770;DHT22;368;48.698;9.116;2023-08-30T12:47:22;17.00;99.90
770;DHT22;368;48.698;9.116;2023-08-30T12:49:50;17.00;99.90
770;DHT22;368;48.698;9.116;2023-08-30T12:52:17;16.70;99.90
770;DHT22;368;48.698;9.116;2023-08-30T12:54:44;16.60;99.90
770;DHT22;368;48.698;9.116;2023-08-30T12:57:10;16.70;99.90
770;DHT22;368;48.698;9.116;2023-08-30T12:59:37;16.80;99.90
770;DHT22;368;48.698;9.116;2023-08-30T13:02:04;16.80;99.90
770;DHT22;368;48.698;9.116;2023-08-30T13:04:32;17.00;99.90
770;DHT22;368;48.698;9.116;2023-08-30T13:07:00;17.10;99.90
770;DHT22;368;48.698;9.116;2023-08-30T13:09:27;17.10;99.90
770;DHT22;368;48.698;9.116;2023-08-30T13:11:53;17.20;99.90
770;DHT22;368;48.698;9.116;2023-08-30T13:14:20;17.30;99.90
770;DHT22;368;48.698;9.116;2023-08-30T13:16:47;17.40;99.90
770;DHT22;368;48.698;9.116;2023-08-30T13:19:15;17.50;99.90
770;DHT22;368;48.698;9.116;2023-08-30T13:21:42;17.80;99.90
770;DHT22;368;48.698;9.116;2023-08-30T13:24:10;17.80;99.90
770;DHT22;368;48.698;9.116;2023-08-30T13:26:37;18.40;99.90
770;DHT22;368;48.698;9.116;2023-08-30T13:29:04;19.30;99.90
770;DHT22;368;48.698;9.116;2023-08-30T13:31:31;19.60;99.90
770;DHT22;368;48.698;9.116;2023-08-30T13:33:58;20.70;99.90
770;DHT22;368;48.698;9.116;2023-08-30T13:36:24;21.40;99.90
770;DHT22;368;48.698;9.116;2023-08-30T13:38:51;22.00;99.90
770;DHT22;368;48.698;9.116;2023-08-30T13:41:20;21.70;99.90
770;DHT22;368;48.698;9.116;2023-08-30T13:43:46;21.40;99.90
770;DHT22;368;48.698;9.116;2023-08-30T13:46:13;21.30;99.90
770;DHT22;368;48.698;9.116;2023-08-30T13:48:40;21.00;99.90
770;DHT22;368;48.698;9.116;2023-08-30T13:51:07;20.90;99.90
770;DHT22;368;48.698;9.116;2023-08-30T13:53:34;21.80;99.90
770;DHT22;368;48.698;9.116;2023-08-30T13:56:00;21.50;99.90
770;DHT22;368;48.698;9.116;2023-08-30T13:58:28;21.50;99.50
770;DHT22;368;48.698;9.116;2023-08-30T14:00:55;22.10;99.90
770;DHT22;368;48.698;9.116;2023-08-30T14:03:22;22.60;99.00
770;DHT22;368;48.698;9.116;2023-08-30T14:05:49;23.30;96.60
770;DHT22;368;48.698;9.116;2023-08-30T14:08:15;23.80;96.90
770;DHT22;368;48.698;9.116;2023-08-30T14:10:42;24.10;96.00
770;DHT22;368;48.698;9.116;2023-08-30T14:13:08;23.60;97.50
770;DHT22;368;48.698;9.116;2023-08-30T14:15:36;23.80;96.30
770;DHT22;368;48.698;9.116;2023-08-30T14:18:03;24.70;95.10
770;DHT22;368;48.698;9.116;2023-08-30T14:20:30;25.40;92.10
770;DHT22;368;48.698;9.116;2023-08-30T14:22:57;24.10;94.20
770;DHT22;368;48.698;9.116;2023-08-30T14:25:24;23.70;94.70
770;DHT22;368;48.698;9.116;2023-08-30T14:27:51;22.60;96.00
770;DHT22;368;48.698;9.116;2023-08-30T14:30:18;22.50;96.60
770;DHT22;368;48.698;9.116;2023-08-30T14:32:46;22.20;97.50
770;DHT22;368;48.698;9.116;2023-08-30T14:35:13;21.50;99.50
770;DHT22;368;48.698;9.116;2023-08-30T14:37:40;21.10;99.90
770;DHT22;368;48.698;9.116;2023-08-30T14:40:07;21.00;99.90
770;DHT22;368;48.698;9.116;2023-08-30T14:42:34;20.80;99.90
770;DHT22;368;48.698;9.116;2023-08-30T14:45:01;20.70;99.90
770;DHT22;368;48.698;9.116;2023-08-30T14:47:29;20.40;99.90
770;DHT22;368;48.698;9.116;2023-08-30T14:49:58;20.80;99.90
770;DHT22;368;48.698;9.116;2023-08-30T14:52:26;20.80;99.90
770;DHT22;368;48.698;9.116;2023-08-30T14:54:53;20.50;99.90
770;DHT22;368;48.698;9.116;2023-08-30T14:57:20;20.20;99.90
770;DHT22;368;48.698;9.116;2023-08-30T14:59:47;20.20;99.90
770;DHT22;368;48.698;9.116;2023-08-30T15:02:14;20.10;99.90
770;DHT22;368;48.698;9.116;2023-08-30T15:04:41;19.90;99.90
770;DHT22;368;48.698;9.116;2023-08-30T15:07:09;20.00;99.60
770;DHT22;368;48.698;9.116;2023-08-30T15:09:37;20.10;99.90
770;DHT22;368;48.698;9.116;2023-08-30T15:12:05;20.00;99.80
770;DHT22;368;48.698;9.116;2023-08-30T15:14:32;20.20;98.70
770;DHT22;368;48.698;9.116;2023-08-30T15:16:59;20.40;98.80
770;DHT22;368;48.698;9.116;2023-08-30T15:19:26;20.60;98.60
770;DHT22;368;48.698;9.116;2023-08-30T15:21:53;20.70;99.50
770;DHT22;368;48.698;9.116;2023-08-30T15:24:21;21.10;99.60
770;DHT22;368;48.698;9.116;2023-08-30T15:26:48;21.00;97.90
770;DHT22;368;48.698;9.116;2023-08-30T15:29:14;21.30;96.60
770;DHT22;368;48.698;9.116;2023-08-30T15:31:41;21.40;96.90
770;DHT22;368;48.698;9.116;2023-08-30T15:34:08;21.10;96.80
770;DHT22;368;48.698;9.116;2023-08-30T15:36:35;20.90;97.00
770;DHT22;368;48.698;9.116;2023-08-30T15:39:02;20.60;96.60
770;DHT22;368;48.698;9.116;2023-08-30T15:41:30;20.40;98.50
770;DHT22;368;48.698;9.116;2023-08-30T15:43:56;20.30;99.60
770;DHT22;368;48.698;9.116;2023-08-30T15:46:24;20.10;98.00
770;DHT22;368;48.698;9.116;2023-08-30T15:48:50;20.10;97.50
770;DHT22;368;48.698;9.116;2023-08-30T15:51:19;20.30;98.20
770;DHT22;368;48.698;9.116;2023-08-30T15:53:45;20.30;97.90
770;DHT22;368;48.698;9.116;2023-08-30T15:56:12;20.80;96.70
770;DHT22;368;48.698;9.116;2023-08-30T15:58:40;20.70;97.10
770;DHT22;368;48.698;9.116;2023-08-30T16:01:07;20.40;97.00
770;DHT22;368;48.698;9.116;2023-08-30T16:03:34;20.50;96.70
770;DHT22;368;48.698;9.116;2023-08-30T16:06:02;20.50;97.70
770;DHT22;368;48.698;9.116;2023-08-30T16:08:29;20.10;97.60
770;DHT22;368;48.698;9.116;2023-08-30T16:10:56;20.10;99.90
770;DHT22;368;48.698;9.116;2023-08-30T16:13:23;19.60;98.80
770;DHT22;368;48.698;9.116;2023-08-30T16:15:51;19.20;99.90
770;DHT22;368;48.698;9.116;2023-08-30T16:18:18;19.50;99.90
770;DHT22;368;48.698;9.116;2023-08-30T16:20:48;19.50;99.90
770;DHT22;368;48.698;9.116;2023-08-30T16:23:15;19.60;99.90
770;DHT22;368;48.698;9.116;2023-08-30T16:25:41;19.80;99.90
770;DHT22;368;48.698;9.116;2023-08-30T16:28:08;19.80;99.90
770;DHT22;368;48.698;9.116;2023-08-30T16:30:35;19.70;99.40
770;DHT22;368;48.698;9.116;2023-08-30T16:33:04;19.40;99.90
770;DHT22;368;48.698;9.116;2023-08-30T16:35:31;19.00;99.90
770;DHT22;368;48.698;9.116;2023-08-30T16:37:58;19.10;99.90